createdAt,value
2019-02-27T00:01:24.854Z,3.40
2019-02-27T00:03:54.255Z,3.30
2019-02-27T00:06:23.705Z,3.30
2019-02-27T00:08:53.124Z,3.30
2019-02-27T00:11:22.299Z,3.20
2019-02-27T00:13:52.240Z,3.20
2019-02-27T00:16:21.694Z,3.20
2019-02-27T00:18:53.632Z,3.10
2019-02-27T00:21:22.475Z,3.10
2019-02-27T00:23:52.147Z,3.10
2019-02-27T00:26:21.320Z,3.10
2019-02-27T00:28:50.730Z,3.10
2019-02-27T00:31:20.520Z,3.10
2019-02-27T00:33:49.815Z,3.10
2019-02-27T00:36:19.590Z,3.10
2019-02-27T00:38:48.988Z,3.00
2019-02-27T00:41:18.691Z,3.00
2019-02-27T00:43:47.824Z,2.90
2019-02-27T00:46:17.252Z,2.90
2019-02-27T00:48:46.680Z,2.90
2019-02-27T00:51:16.188Z,2.80
2019-02-27T00:53:45.679Z,2.80
2019-02-27T00:56:15.115Z,2.70
2019-02-27T00:58:44.256Z,2.70
2019-02-27T01:01:13.504Z,2.60
2019-02-27T01:03:43.288Z,2.60
2019-02-27T01:06:14.634Z,2.60
2019-02-27T01:08:44.424Z,2.60
2019-02-27T01:11:18.151Z,2.60
2019-02-27T01:13:44.491Z,2.50
2019-02-27T01:16:17.023Z,2.50
2019-02-27T01:18:44.783Z,2.50
2019-02-27T01:21:14.198Z,2.50
2019-02-27T01:23:44.703Z,2.50
2019-02-27T01:26:14.320Z,2.50
2019-02-27T01:28:45.483Z,2.50
2019-02-27T01:31:15.325Z,2.40
2019-02-27T01:33:45.023Z,2.40
2019-02-27T01:36:14.750Z,2.40
2019-02-27T01:38:44.011Z,2.40
2019-02-27T01:41:13.476Z,2.30
2019-02-27T01:43:42.644Z,2.30
2019-02-27T01:46:12.576Z,2.30
2019-02-27T01:48:43.616Z,2.30
2019-02-27T01:51:13.299Z,2.30
2019-02-27T01:53:42.744Z,2.30
2019-02-27T01:56:11.904Z,2.30
2019-02-27T01:58:44.128Z,2.30
2019-02-27T02:01:13.407Z,2.30
2019-02-27T02:03:47.169Z,2.30
2019-02-27T02:06:14.415Z,2.20
2019-02-27T02:08:47.995Z,2.10
2019-02-27T02:11:14.715Z,2.00
2019-02-27T02:14:06.248Z,2.00
2019-02-27T02:16:48.712Z,2.00
2019-02-27T02:19:59.456Z,1.90
2019-02-27T02:23:16.068Z,1.90
2019-02-27T02:26:01.102Z,2.00
2019-02-27T02:29:11.335Z,2.00
2019-02-27T02:31:48.040Z,2.00
2019-02-27T02:34:43.583Z,2.00
2019-02-27T02:37:55.351Z,2.00
2019-02-27T02:40:56.096Z,2.00
2019-02-27T02:44:04.580Z,2.00
2019-02-27T02:46:57.504Z,2.00
2019-02-27T02:50:01.139Z,2.00
2019-02-27T02:53:05.324Z,1.90
2019-02-27T02:56:06.668Z,1.90
2019-02-27T02:59:04.551Z,1.80
2019-02-27T03:01:48.732Z,1.80
2019-02-27T03:05:06.120Z,1.80
2019-02-27T03:07:50.831Z,1.80
2019-02-27T03:10:25.634Z,1.70
2019-02-27T03:13:50.793Z,1.70
2019-02-27T03:16:53.352Z,1.60
2019-02-27T03:20:00.842Z,1.50
2019-02-27T03:22:53.230Z,1.50
2019-02-27T03:25:51.839Z,1.40
2019-02-27T03:29:05.383Z,1.40
2019-02-27T03:32:00.993Z,1.30
2019-02-27T03:34:50.411Z,1.40
2019-02-27T03:37:35.465Z,1.40
2019-02-27T03:40:48.933Z,1.40
2019-02-27T03:44:01.960Z,1.50
2019-02-27T03:47:16.671Z,1.50
2019-02-27T03:50:39.060Z,1.50
2019-02-27T03:53:46.258Z,1.50
2019-02-27T03:56:50.687Z,1.50
2019-02-27T03:59:35.045Z,1.50
2019-02-27T04:02:29.220Z,1.50
2019-02-27T04:05:12.717Z,1.50
2019-02-27T04:08:18.817Z,1.50
2019-02-27T04:10:48.033Z,1.50
2019-02-27T04:13:17.460Z,1.40
2019-02-27T04:15:53.366Z,1.40
2019-02-27T04:18:17.064Z,1.40
2019-02-27T04:20:50.835Z,1.40
2019-02-27T04:23:19.273Z,1.40
2019-02-27T04:25:48.781Z,1.40
2019-02-27T04:28:18.468Z,1.30
2019-02-27T04:30:51.117Z,1.30
2019-02-27T04:33:22.878Z,1.20
2019-02-27T04:35:49.603Z,1.20
2019-02-27T04:38:19.570Z,1.10
2019-02-27T04:40:49.235Z,1.10
2019-02-27T04:43:18.892Z,1.10
2019-02-27T04:45:48.063Z,1.10
2019-02-27T04:48:17.500Z,1.00
2019-02-27T04:50:47.011Z,1.00
2019-02-27T04:53:16.439Z,0.90
2019-02-27T04:55:48.004Z,0.90
2019-02-27T04:58:16.772Z,0.80
2019-02-27T05:00:45.971Z,0.80
2019-02-27T05:03:15.134Z,0.80
2019-02-27T05:05:44.547Z,0.80
2019-02-27T05:08:13.984Z,0.80
2019-02-27T05:10:43.376Z,0.80
2019-02-27T05:13:12.624Z,0.80
2019-02-27T05:15:42.080Z,0.70
2019-02-27T05:18:11.775Z,0.70
2019-02-27T05:20:45.057Z,0.70
2019-02-27T05:23:11.777Z,0.70
2019-02-27T05:25:40.966Z,0.60
2019-02-27T05:28:10.395Z,0.60
2019-02-27T05:30:40.327Z,0.60
2019-02-27T05:33:09.474Z,0.60
2019-02-27T05:35:38.603Z,0.60
2019-02-27T05:38:08.147Z,0.60
2019-02-27T05:40:37.342Z,0.60
2019-02-27T05:43:07.099Z,0.50
2019-02-27T05:45:36.283Z,0.50
2019-02-27T05:48:05.434Z,0.50
2019-02-27T05:50:34.911Z,0.50
2019-02-27T05:53:04.350Z,0.50
2019-02-27T05:55:33.471Z,0.50
2019-02-27T05:58:02.887Z,0.50
2019-02-27T06:00:32.975Z,0.60
2019-02-27T06:03:02.738Z,0.60
2019-02-27T06:05:33.664Z,0.60
2019-02-27T06:08:03.576Z,0.60
2019-02-27T06:10:32.795Z,0.60
2019-02-27T06:13:02.876Z,0.60
2019-02-27T06:15:32.332Z,0.50
2019-02-27T06:18:02.403Z,0.50
2019-02-27T06:20:31.788Z,0.50
2019-02-27T06:23:04.185Z,0.50
2019-02-27T06:25:32.139Z,0.50
2019-02-27T06:28:01.555Z,0.50
2019-02-27T06:30:31.400Z,0.50
2019-02-27T06:33:01.190Z,0.60
2019-02-27T06:35:33.470Z,0.60
2019-02-27T06:38:01.962Z,0.60
2019-02-27T06:40:31.074Z,0.60
2019-02-27T06:43:00.789Z,0.60
2019-02-27T06:45:30.251Z,0.70
2019-02-27T06:48:00.046Z,0.70
2019-02-27T06:50:29.199Z,0.90
2019-02-27T06:52:58.388Z,1.10
2019-02-27T06:55:28.771Z,1.40
2019-02-27T06:57:57.989Z,1.70
2019-02-27T07:00:27.145Z,1.90
2019-02-27T07:02:56.276Z,2.20
2019-02-27T07:05:25.736Z,2.50
2019-02-27T07:07:55.144Z,2.90
2019-02-27T07:10:24.358Z,3.10
2019-02-27T07:12:54.750Z,3.30
2019-02-27T07:15:24.800Z,3.90
2019-02-27T07:17:54.339Z,4.20
2019-02-27T07:20:24.548Z,4.20
2019-02-27T07:22:54.660Z,4.00
2019-02-27T07:25:23.921Z,3.90
2019-02-27T07:27:53.051Z,3.70
2019-02-27T07:30:23.802Z,3.50
2019-02-27T07:32:53.430Z,3.40
2019-02-27T07:35:25.597Z,3.30
2019-02-27T07:37:54.481Z,3.30
2019-02-27T07:40:24.026Z,3.20
2019-02-27T07:42:53.821Z,3.20
2019-02-27T07:45:23.251Z,3.20
2019-02-27T07:47:52.903Z,3.30
2019-02-27T07:50:22.059Z,3.40
2019-02-27T07:52:52.119Z,3.50
2019-02-27T07:55:23.284Z,3.50
2019-02-27T07:57:52.794Z,3.60
2019-02-27T08:00:22.362Z,3.70
2019-02-27T08:02:51.562Z,3.80
2019-02-27T08:05:21.323Z,3.90
2019-02-27T08:07:50.984Z,4.10
2019-02-27T08:10:20.596Z,4.20
2019-02-27T08:12:49.731Z,4.30
2019-02-27T08:15:19.001Z,4.50
2019-02-27T08:17:48.592Z,4.50
2019-02-27T08:20:20.234Z,4.70
2019-02-27T08:22:49.619Z,4.70
2019-02-27T08:25:19.125Z,4.80
2019-02-27T08:27:48.541Z,4.90
2019-02-27T08:30:21.686Z,4.90
2019-02-27T08:32:50.812Z,4.90
2019-02-27T08:35:20.520Z,5.00
2019-02-27T08:37:49.646Z,5.00
2019-02-27T08:40:19.063Z,5.10
2019-02-27T08:42:48.450Z,5.20
2019-02-27T08:45:20.023Z,5.20
2019-02-27T08:47:48.728Z,5.30
2019-02-27T08:50:17.986Z,5.50
2019-02-27T08:52:50.530Z,5.60
2019-02-27T08:55:21.148Z,5.70
2019-02-27T08:57:49.955Z,5.90
2019-02-27T09:00:23.201Z,6.10
2019-02-27T09:02:52.485Z,6.30
2019-02-27T09:05:22.257Z,6.50
2019-02-27T09:07:51.785Z,6.70
2019-02-27T09:10:23.171Z,6.90
2019-02-27T09:12:52.318Z,7.00
2019-02-27T09:15:21.556Z,7.20
2019-02-27T09:17:51.213Z,7.30
2019-02-27T09:20:20.753Z,7.50
2019-02-27T09:22:50.587Z,7.60
2019-02-27T09:25:23.891Z,7.80
2019-02-27T09:27:50.843Z,8.00
2019-02-27T09:30:20.635Z,8.20
2019-02-27T09:32:50.110Z,8.40
2019-02-27T09:35:19.614Z,8.60
2019-02-27T09:37:51.391Z,8.80
2019-02-27T09:40:20.023Z,8.90
2019-02-27T09:42:50.251Z,9.10
2019-02-27T09:45:25.774Z,9.20
2019-02-27T09:47:59.605Z,9.40
2019-02-27T09:50:38.459Z,9.40
2019-02-27T09:53:07.633Z,9.60
2019-02-27T09:55:36.791Z,9.80
2019-02-27T09:58:10.038Z,9.90
2019-02-27T10:00:45.563Z,10.00
2019-02-27T10:03:20.203Z,10.10
2019-02-27T10:05:46.462Z,10.20
2019-02-27T10:08:15.915Z,10.30
2019-02-27T10:10:46.032Z,10.40
2019-02-27T10:13:16.090Z,10.50
2019-02-27T10:15:45.315Z,10.60
2019-02-27T10:18:18.246Z,10.70
2019-02-27T10:20:46.727Z,10.70
2019-02-27T10:23:15.931Z,10.80
2019-02-27T10:25:45.092Z,10.90
2019-02-27T10:28:14.607Z,11.00
2019-02-27T10:30:44.223Z,11.20
2019-02-27T10:33:13.395Z,11.30
2019-02-27T10:35:42.567Z,11.40
2019-02-27T10:38:11.691Z,11.50
2019-02-27T10:40:40.865Z,11.60
2019-02-27T10:43:10.626Z,11.70
2019-02-27T10:45:39.863Z,11.80
2019-02-27T10:48:08.999Z,11.90
2019-02-27T10:50:38.431Z,12.00
2019-02-27T10:53:08.091Z,12.10
2019-02-27T10:55:37.257Z,12.10
2019-02-27T10:58:07.734Z,12.20
2019-02-27T11:00:37.233Z,12.30
2019-02-27T11:03:06.836Z,12.40
2019-02-27T11:05:35.990Z,12.50
2019-02-27T11:08:06.031Z,12.60
2019-02-27T11:10:35.226Z,12.70
2019-02-27T11:13:06.810Z,12.80
2019-02-27T11:15:41.173Z,12.80
2019-02-27T11:18:06.822Z,12.90
2019-02-27T11:20:36.219Z,13.00
2019-02-27T11:23:07.060Z,13.20
2019-02-27T11:25:37.186Z,13.30
2019-02-27T11:28:06.352Z,13.40
2019-02-27T11:30:37.061Z,13.50
2019-02-27T11:33:06.384Z,13.60
2019-02-27T11:35:35.777Z,13.60
2019-02-27T11:38:05.016Z,13.70
2019-02-27T11:40:34.500Z,13.80
2019-02-27T11:43:06.411Z,13.90
2019-02-27T11:45:34.863Z,13.90
2019-02-27T11:48:04.103Z,14.00
2019-02-27T11:50:33.231Z,14.10
2019-02-27T11:53:03.135Z,14.20
2019-02-27T11:55:32.635Z,14.20
2019-02-27T11:58:05.323Z,14.30
2019-02-27T12:00:33.755Z,14.40
2019-02-27T12:03:02.919Z,14.40
2019-02-27T12:05:34.333Z,14.40
2019-02-27T12:08:03.796Z,14.40
2019-02-27T12:10:33.330Z,14.40
2019-02-27T12:13:02.883Z,14.40
2019-02-27T12:15:32.187Z,14.50
2019-02-27T12:18:01.884Z,14.50
2019-02-27T12:20:31.524Z,14.50
2019-02-27T12:23:01.220Z,14.60
2019-02-27T12:25:32.324Z,14.60
2019-02-27T12:28:02.073Z,14.60
2019-02-27T12:30:31.289Z,14.70
2019-02-27T12:33:01.055Z,14.80
2019-02-27T12:35:30.828Z,14.80
2019-02-27T12:38:00.263Z,14.90
2019-02-27T12:40:29.991Z,14.90
2019-02-27T12:42:59.273Z,15.00
2019-02-27T12:45:29.652Z,15.10
2019-02-27T12:47:59.537Z,15.20
2019-02-27T12:50:30.973Z,15.20
2019-02-27T12:52:59.561Z,15.30
2019-02-27T12:55:28.907Z,15.30
2019-02-27T12:57:58.143Z,15.40
2019-02-27T13:00:28.380Z,15.40
2019-02-27T13:02:58.926Z,15.50
2019-02-27T13:05:28.452Z,15.50
2019-02-27T13:07:57.692Z,15.50
2019-02-27T13:10:26.837Z,15.60
2019-02-27T13:12:56.301Z,15.60
2019-02-27T13:15:25.995Z,15.70
2019-02-27T13:17:57.593Z,15.80
2019-02-27T13:20:26.804Z,15.80
2019-02-27T13:22:56.212Z,15.80
2019-02-27T13:25:25.363Z,15.80
2019-02-27T13:27:54.800Z,15.80
2019-02-27T13:30:24.239Z,15.80
2019-02-27T13:32:53.651Z,15.80
2019-02-27T13:35:23.986Z,15.90
2019-02-27T13:37:53.300Z,15.90
2019-02-27T13:40:22.568Z,16.00
2019-02-27T13:42:53.448Z,16.00
2019-02-27T13:45:24.688Z,15.90
2019-02-27T13:47:54.006Z,16.00
2019-02-27T13:50:26.500Z,16.00
2019-02-27T13:52:54.206Z,16.10
2019-02-27T13:55:23.516Z,16.10
2019-02-27T13:57:53.495Z,16.10
2019-02-27T14:00:26.947Z,16.00
2019-02-27T14:02:56.355Z,16.10
2019-02-27T14:05:25.940Z,16.00
2019-02-27T14:07:58.312Z,16.10
2019-02-27T14:10:27.687Z,16.10
2019-02-27T14:12:56.827Z,16.10
2019-02-27T14:15:27.223Z,16.20
2019-02-27T14:17:57.511Z,16.20
2019-02-27T14:20:27.294Z,16.20
2019-02-27T14:22:57.904Z,16.20
2019-02-27T14:25:31.134Z,16.30
2019-02-27T14:28:00.901Z,16.20
2019-02-27T14:30:36.579Z,16.30
2019-02-27T14:33:06.658Z,16.30
2019-02-27T14:35:36.619Z,16.30
2019-02-27T14:38:06.219Z,16.30
2019-02-27T14:40:40.066Z,16.30
2019-02-27T14:43:07.035Z,16.30
2019-02-27T14:45:39.482Z,16.30
2019-02-27T14:48:07.583Z,16.30
2019-02-27T14:50:38.144Z,16.20
2019-02-27T14:53:07.295Z,16.20
2019-02-27T14:55:37.418Z,16.20
2019-02-27T14:58:06.929Z,16.20
2019-02-27T15:00:40.053Z,16.20
2019-02-27T15:03:07.275Z,16.20
2019-02-27T15:05:37.125Z,16.20
2019-02-27T15:08:07.657Z,16.20
2019-02-27T15:10:40.272Z,16.20
2019-02-27T15:13:08.801Z,16.20
2019-02-27T15:15:43.150Z,16.20
2019-02-27T15:18:09.722Z,16.20
2019-02-27T15:20:41.050Z,16.30
2019-02-27T15:23:10.215Z,16.30
2019-02-27T15:25:43.047Z,16.30
2019-02-27T15:28:10.829Z,16.30
2019-02-27T15:30:40.022Z,16.30
2019-02-27T15:33:09.518Z,16.30
2019-02-27T15:35:38.971Z,16.30
2019-02-27T15:38:11.367Z,16.30
2019-02-27T15:40:39.703Z,16.30
2019-02-27T15:43:11.531Z,16.20
2019-02-27T15:45:47.474Z,16.20
2019-02-27T15:48:11.892Z,16.20
2019-02-27T15:50:41.095Z,16.20
2019-02-27T15:53:14.506Z,16.20
2019-02-27T15:55:42.380Z,16.10
2019-02-27T15:58:11.879Z,16.10
2019-02-27T16:00:41.252Z,16.00
2019-02-27T16:03:11.769Z,16.00
2019-02-27T16:05:41.635Z,16.00
2019-02-27T16:08:10.856Z,16.00
2019-02-27T16:10:43.661Z,15.90
2019-02-27T16:13:11.056Z,15.90
2019-02-27T16:15:40.283Z,15.80
2019-02-27T16:18:10.291Z,15.70
2019-02-27T16:20:40.060Z,15.60
2019-02-27T16:23:09.955Z,15.60
2019-02-27T16:25:39.249Z,15.50
2019-02-27T16:28:12.031Z,15.40
2019-02-27T16:30:39.964Z,15.30
2019-02-27T16:33:09.783Z,15.20
2019-02-27T16:35:42.188Z,15.10
2019-02-27T16:38:13.039Z,15.10
2019-02-27T16:40:41.675Z,15.00
2019-02-27T16:43:13.556Z,14.90
2019-02-27T16:45:42.073Z,14.80
2019-02-27T16:48:11.627Z,14.60
2019-02-27T16:50:42.556Z,14.50
2019-02-27T16:53:16.235Z,14.40
2019-02-27T16:55:43.507Z,14.30
2019-02-27T16:58:13.013Z,14.20
2019-02-27T17:00:42.295Z,14.00
2019-02-27T17:03:13.453Z,13.90
2019-02-27T17:05:43.904Z,13.80
2019-02-27T17:08:13.254Z,13.70
2019-02-27T17:10:42.727Z,13.60
2019-02-27T17:13:15.395Z,13.50
2019-02-27T17:15:43.088Z,13.40
2019-02-27T17:18:12.819Z,13.30
2019-02-27T17:20:46.051Z,13.10
2019-02-27T17:23:13.027Z,13.00
2019-02-27T17:25:42.156Z,13.00
2019-02-27T17:28:12.042Z,12.90
2019-02-27T17:30:41.255Z,12.80
2019-02-27T17:33:10.764Z,12.60
2019-02-27T17:35:40.167Z,12.50
2019-02-27T17:38:10.852Z,12.40
2019-02-27T17:40:41.194Z,12.30
2019-02-27T17:43:10.455Z,12.10
2019-02-27T17:45:39.602Z,11.90
2019-02-27T17:48:09.343Z,11.80
2019-02-27T17:50:40.060Z,11.60
2019-02-27T17:53:09.427Z,11.40
2019-02-27T17:55:41.769Z,11.30
2019-02-27T17:58:10.095Z,11.20
2019-02-27T18:00:41.422Z,11.10
2019-02-27T18:03:10.679Z,11.00
2019-02-27T18:05:39.811Z,10.90
2019-02-27T18:08:09.066Z,10.80
2019-02-27T18:10:38.386Z,10.70
2019-02-27T18:13:07.771Z,10.60
2019-02-27T18:15:36.992Z,10.60
2019-02-27T18:18:09.105Z,10.50
2019-02-27T18:20:37.719Z,10.40
2019-02-27T18:23:06.979Z,10.30
2019-02-27T18:25:41.029Z,10.20
2019-02-27T18:28:07.889Z,10.10
2019-02-27T18:30:37.101Z,10.10
2019-02-27T18:33:06.426Z,10.00
2019-02-27T18:35:36.049Z,9.80
2019-02-27T18:38:05.355Z,9.80
2019-02-27T18:40:34.531Z,9.70
2019-02-27T18:43:04.043Z,9.60
2019-02-27T18:45:33.192Z,9.50
2019-02-27T18:48:02.455Z,9.40
2019-02-27T18:50:31.862Z,9.40
2019-02-27T18:53:01.115Z,9.30
2019-02-27T18:55:31.413Z,9.20
2019-02-27T18:58:00.872Z,9.10
2019-02-27T19:00:30.131Z,9.00
2019-02-27T19:02:59.583Z,8.90
2019-02-27T19:05:28.987Z,8.80
2019-02-27T19:07:58.519Z,8.80
2019-02-27T19:10:27.923Z,8.70
2019-02-27T19:12:59.959Z,8.60
2019-02-27T19:15:28.578Z,8.50
2019-02-27T19:17:57.907Z,8.40
2019-02-27T19:20:28.402Z,8.30
2019-02-27T19:22:57.748Z,8.30
2019-02-27T19:25:27.460Z,8.20
2019-02-27T19:27:57.215Z,8.10
2019-02-27T19:30:27.521Z,8.00
2019-02-27T19:33:01.615Z,8.00
2019-02-27T19:35:28.655Z,7.90
2019-02-27T19:37:58.590Z,7.90
2019-02-27T19:40:30.579Z,7.80
2019-02-27T19:43:00.979Z,7.60
2019-02-27T19:45:30.215Z,7.50
2019-02-27T19:47:59.728Z,7.40
2019-02-27T19:50:29.031Z,7.30
2019-02-27T19:53:03.310Z,7.10
2019-02-27T19:55:29.736Z,7.00
2019-02-27T19:57:59.387Z,7.00
2019-02-27T20:00:33.774Z,7.00
2019-02-27T20:03:01.485Z,6.90
2019-02-27T20:05:31.191Z,6.90
2019-02-27T20:08:02.408Z,6.80
2019-02-27T20:10:33.305Z,6.80
2019-02-27T20:13:02.931Z,6.70
2019-02-27T20:15:33.144Z,6.70
2019-02-27T20:18:07.887Z,6.60
2019-02-27T20:20:33.352Z,6.60
2019-02-27T20:23:03.161Z,6.50
2019-02-27T20:25:32.961Z,6.50
2019-02-27T20:28:02.315Z,6.50
2019-02-27T20:30:31.841Z,6.40
2019-02-27T20:33:02.577Z,6.30
2019-02-27T20:35:32.463Z,6.30
2019-02-27T20:38:02.126Z,6.20
2019-02-27T20:40:34.203Z,6.10
2019-02-27T20:43:02.587Z,6.10
2019-02-27T20:45:31.726Z,6.00
2019-02-27T20:48:01.998Z,6.00
2019-02-27T20:50:37.107Z,6.00
2019-02-27T20:53:06.774Z,5.90
2019-02-27T20:56:19.388Z,5.80
2019-02-27T20:58:52.013Z,5.80
2019-02-27T21:01:19.622Z,5.60
2019-02-27T21:03:49.402Z,5.60
2019-02-27T21:06:18.879Z,5.50
2019-02-27T21:08:48.123Z,5.40
2019-02-27T21:11:17.806Z,5.40
2019-02-27T21:13:49.630Z,5.30
2019-02-27T21:16:18.427Z,5.30
2019-02-27T21:18:47.795Z,5.20
2019-02-27T21:21:19.774Z,5.20
2019-02-27T21:23:48.435Z,5.20
2019-02-27T21:26:19.954Z,5.10
2019-02-27T21:28:58.100Z,5.10
2019-02-27T21:31:26.580Z,5.10
2019-02-27T21:33:51.735Z,5.10
2019-02-27T21:36:21.411Z,5.10
2019-02-27T21:38:51.475Z,5.10
2019-02-27T21:41:20.670Z,5.20
2019-02-27T21:43:49.860Z,5.30
2019-02-27T21:46:19.066Z,5.50
2019-02-27T21:48:48.235Z,5.70
2019-02-27T21:51:17.639Z,5.90
2019-02-27T21:53:47.094Z,6.10
2019-02-27T21:56:18.014Z,6.30
2019-02-27T21:58:48.085Z,6.40
2019-02-27T22:01:19.320Z,6.50
2019-02-27T22:03:48.327Z,6.70
2019-02-27T22:06:17.739Z,6.80
2019-02-27T22:08:46.916Z,6.90
2019-02-27T22:11:17.202Z,7.00
2019-02-27T22:13:46.656Z,7.00
2019-02-27T22:16:16.157Z,7.00
2019-02-27T22:18:46.981Z,7.00
2019-02-27T22:21:17.607Z,7.00
2019-02-27T22:23:47.398Z,7.10
2019-02-27T22:26:17.087Z,7.10
2019-02-27T22:28:46.247Z,7.10
2019-02-27T22:31:15.992Z,7.10
2019-02-27T22:33:45.500Z,7.20
2019-02-27T22:36:14.634Z,7.20
2019-02-27T22:38:44.384Z,7.20
2019-02-27T22:41:14.067Z,7.20
2019-02-27T22:43:43.339Z,7.20
2019-02-27T22:46:13.605Z,7.10
2019-02-27T22:48:44.015Z,7.10
2019-02-27T22:51:13.679Z,7.10
2019-02-27T22:53:43.116Z,7.10
2019-02-27T22:56:15.770Z,7.10
2019-02-27T22:58:43.684Z,7.10
2019-02-27T23:01:42.960Z,7.00
2019-02-27T23:04:12.500Z,7.00
2019-02-27T23:06:43.642Z,7.10
2019-02-27T23:09:14.629Z,7.20
2019-02-27T23:11:44.306Z,7.20
2019-02-27T23:14:13.736Z,7.30
2019-02-27T23:16:43.144Z,7.30
2019-02-27T23:19:13.130Z,7.40
2019-02-27T23:21:42.831Z,7.40
2019-02-27T23:24:12.659Z,7.40
2019-02-27T23:26:41.800Z,7.40
2019-02-27T23:29:10.975Z,7.40
2019-02-27T23:31:40.987Z,7.40
2019-02-27T23:34:10.704Z,7.40
2019-02-27T23:36:40.166Z,7.30
2019-02-27T23:39:10.622Z,7.40
2019-02-27T23:41:39.750Z,7.30
2019-02-27T23:44:08.923Z,7.30
2019-02-27T23:46:38.699Z,7.30
2019-02-27T23:49:08.479Z,7.20
2019-02-27T23:51:37.870Z,7.20
2019-02-27T23:54:07.044Z,7.20
2019-02-27T23:56:36.451Z,7.30
2019-02-27T23:59:05.955Z,7.30
